createdAt,value
2019-03-20T00:00:14.705Z,99519.16
2019-03-20T00:02:47.974Z,99522.05
2019-03-20T00:05:20.433Z,99525.56
2019-03-20T00:07:52.263Z,99528.72
2019-03-20T00:10:24.305Z,99535.72
2019-03-20T00:12:56.325Z,99533.41
2019-03-20T00:15:28.431Z,99535.72
2019-03-20T00:18:00.458Z,99535.05
2019-03-20T00:20:32.760Z,99530.34
2019-03-20T00:23:05.068Z,99533.33
2019-03-20T00:25:38.784Z,99535.70
2019-03-20T00:28:11.005Z,99534.53
2019-03-20T00:30:42.951Z,99533.87
2019-03-20T00:33:14.801Z,99550.86
2019-03-20T00:35:46.638Z,99561.65
2019-03-20T00:38:18.655Z,99566.58
2019-03-20T00:40:50.354Z,99554.88
2019-03-20T00:43:22.291Z,99554.89
2019-03-20T00:45:54.332Z,99558.31
2019-03-20T00:48:27.853Z,99563.47
2019-03-20T00:50:59.832Z,99563.47
2019-03-20T00:53:31.744Z,99547.58
2019-03-20T00:56:03.611Z,99554.69
2019-03-20T00:58:35.573Z,99553.45
2019-03-20T01:01:07.857Z,99547.45
2019-03-20T01:03:39.595Z,99557.52
2019-03-20T01:06:11.538Z,99545.33
2019-03-20T01:08:43.320Z,99555.72
2019-03-20T01:11:15.253Z,99554.20
2019-03-20T01:13:47.779Z,99557.22
2019-03-20T01:16:20.678Z,99553.77
2019-03-20T01:18:52.855Z,99548.66
2019-03-20T01:21:26.080Z,99557.89
2019-03-20T01:23:57.697Z,99559.09
2019-03-20T01:26:29.611Z,99553.95
2019-03-20T01:29:01.599Z,99562.85
2019-03-20T01:31:33.385Z,99561.82
2019-03-20T01:34:06.261Z,99554.69
2019-03-20T01:36:37.975Z,99557.41
2019-03-20T01:39:09.662Z,99563.41
2019-03-20T01:41:41.354Z,99563.40
2019-03-20T01:44:13.263Z,99562.30
2019-03-20T01:46:45.447Z,99560.45
2019-03-20T01:49:17.335Z,99554.06
2019-03-20T01:51:49.215Z,99568.31
2019-03-20T01:54:21.209Z,99560.14
2019-03-20T01:56:53.072Z,99565.16
2019-03-20T01:59:26.292Z,99561.88
2019-03-20T02:01:58.727Z,99563.72
2019-03-20T02:04:30.526Z,99568.27
2019-03-20T02:07:02.381Z,99575.31
2019-03-20T02:09:35.364Z,99576.63
2019-03-20T02:12:07.293Z,99579.25
2019-03-20T02:14:39.268Z,99583.06
2019-03-20T02:17:11.200Z,99581.25
2019-03-20T02:19:43.018Z,99586.08
2019-03-20T02:22:14.874Z,99580.88
2019-03-20T02:24:46.798Z,99584.70
2019-03-20T02:27:20.257Z,99583.37
2019-03-20T02:29:51.949Z,99591.19
2019-03-20T02:32:25.359Z,99583.18
2019-03-20T02:34:57.129Z,99590.81
2019-03-20T02:37:28.965Z,99599.55
2019-03-20T02:40:00.761Z,99596.20
2019-03-20T02:42:34.383Z,99601.05
2019-03-20T02:45:07.832Z,99601.81
2019-03-20T02:47:39.602Z,99599.20
2019-03-20T02:50:12.159Z,99601.81
2019-03-20T02:52:44.277Z,99607.22
2019-03-20T02:55:16.377Z,99602.38
2019-03-20T02:57:48.404Z,99609.38
2019-03-20T03:00:20.894Z,99613.73
2019-03-20T03:02:52.747Z,99610.38
2019-03-20T03:05:25.155Z,99615.17
2019-03-20T03:07:56.958Z,99609.58
2019-03-20T03:10:30.153Z,99604.83
2019-03-20T03:13:01.978Z,99605.84
2019-03-20T03:15:34.002Z,99614.81
2019-03-20T03:18:06.535Z,99618.78
2019-03-20T03:20:38.600Z,99621.28
2019-03-20T03:23:10.432Z,99617.91
2019-03-20T03:25:44.481Z,99625.51
2019-03-20T03:28:16.275Z,99622.54
2019-03-20T03:30:48.128Z,99626.66
2019-03-20T03:33:19.969Z,99629.97
2019-03-20T03:35:53.154Z,99626.73
2019-03-20T03:38:24.998Z,99626.70
2019-03-20T03:40:56.729Z,99644.73
2019-03-20T03:43:28.560Z,99647.18
2019-03-20T03:46:00.505Z,99641.44
2019-03-20T03:48:32.420Z,99643.89
2019-03-20T03:51:04.455Z,99638.98
2019-03-20T03:53:36.464Z,99641.59
2019-03-20T03:56:08.215Z,99640.13
2019-03-20T03:58:40.145Z,99642.09
2019-03-20T04:01:12.864Z,99645.99
2019-03-20T04:03:44.906Z,99644.43
2019-03-20T04:06:16.688Z,99649.54
2019-03-20T04:08:48.499Z,99649.45
2019-03-20T04:11:20.203Z,99644.64
2019-03-20T04:13:53.029Z,99644.64
2019-03-20T04:16:25.093Z,99639.41
2019-03-20T04:18:56.815Z,99649.56
2019-03-20T04:21:28.738Z,99647.44
2019-03-20T04:24:00.748Z,99651.80
2019-03-20T04:26:32.552Z,99650.34
2019-03-20T04:29:06.092Z,99653.00
2019-03-20T04:31:37.747Z,99655.48
2019-03-20T04:34:09.611Z,99655.91
2019-03-20T04:36:48.001Z,99654.86
2019-03-20T04:39:17.366Z,99651.77
2019-03-20T04:41:49.797Z,99657.45
2019-03-20T04:44:21.621Z,99658.93
2019-03-20T04:46:53.892Z,99661.86
2019-03-20T04:49:25.609Z,99673.02
2019-03-20T04:51:58.125Z,99666.52
2019-03-20T04:54:29.845Z,99672.53
2019-03-20T04:57:01.625Z,99673.37
2019-03-20T04:59:33.567Z,99679.81
2019-03-20T05:02:07.410Z,99685.19
2019-03-20T05:04:39.232Z,99685.55
2019-03-20T05:07:11.174Z,99690.09
2019-03-20T05:09:43.140Z,99695.89
2019-03-20T05:12:14.979Z,99697.38
2019-03-20T05:14:47.511Z,99700.52
2019-03-20T05:17:19.349Z,99704.11
2019-03-20T05:19:51.433Z,99704.11
2019-03-20T05:22:23.436Z,99713.00
2019-03-20T05:24:55.581Z,99708.17
2019-03-20T05:27:27.366Z,99708.17
2019-03-20T05:29:59.151Z,99718.72
2019-03-20T05:32:32.874Z,99728.57
2019-03-20T05:35:04.757Z,99726.48
2019-03-20T05:37:37.153Z,99730.14
2019-03-20T05:40:10.540Z,99730.27
2019-03-20T05:42:42.626Z,99737.13
2019-03-20T05:45:14.694Z,99735.52
2019-03-20T05:47:46.815Z,99737.09
2019-03-20T05:50:18.836Z,99745.23
2019-03-20T05:52:50.921Z,99746.10
2019-03-20T05:55:23.213Z,99744.91
2019-03-20T05:57:55.347Z,99748.77
2019-03-20T06:00:29.746Z,99746.81
2019-03-20T06:03:01.834Z,99749.81
2019-03-20T06:05:33.690Z,99759.63
2019-03-20T06:08:05.882Z,99764.12
2019-03-20T06:10:37.611Z,99764.12
2019-03-20T06:13:09.439Z,99767.55
2019-03-20T06:15:41.180Z,99770.08
2019-03-20T06:18:13.221Z,99766.91
2019-03-20T06:20:45.196Z,99770.09
2019-03-20T06:23:16.969Z,99776.67
2019-03-20T06:25:51.318Z,99772.38
2019-03-20T06:28:22.609Z,99783.45
2019-03-20T06:30:54.488Z,99777.89
2019-03-20T06:33:26.707Z,99780.55
2019-03-20T06:35:58.741Z,99790.40
2019-03-20T06:38:30.995Z,99786.89
2019-03-20T06:41:02.864Z,99793.54
2019-03-20T06:43:34.589Z,99795.27
2019-03-20T06:46:06.846Z,99797.16
2019-03-20T06:48:38.645Z,99802.05
2019-03-20T06:51:11.570Z,99797.00
2019-03-20T06:53:43.543Z,99802.67
2019-03-20T06:56:15.831Z,99796.67
2019-03-20T06:58:47.834Z,99803.70
2019-03-20T07:01:26.911Z,99798.95
2019-03-20T07:04:32.674Z,99812.45
2019-03-20T07:07:11.710Z,99811.50
2019-03-20T07:10:14.545Z,99815.16
2019-03-20T07:12:46.447Z,99816.03
2019-03-20T07:15:18.282Z,99823.13
2019-03-20T07:17:50.078Z,99823.50
2019-03-20T07:20:22.009Z,99826.61
2019-03-20T07:22:54.152Z,99832.03
2019-03-20T07:25:26.240Z,99832.95
2019-03-20T07:27:58.345Z,99831.81
2019-03-20T07:30:30.835Z,99836.75
2019-03-20T07:33:02.931Z,99831.81
2019-03-20T07:35:34.552Z,99834.00
2019-03-20T07:38:06.305Z,99841.77
2019-03-20T07:40:40.836Z,99829.75
2019-03-20T07:43:12.677Z,99829.75
2019-03-20T07:45:44.700Z,99850.36
2019-03-20T07:48:22.052Z,99839.11
2019-03-20T07:50:50.175Z,99843.63
2019-03-20T07:53:22.543Z,99842.60
2019-03-20T07:55:54.431Z,99840.00
2019-03-20T07:58:26.274Z,99848.28
2019-03-20T08:00:58.193Z,99848.31
2019-03-20T08:03:30.120Z,99846.89
2019-03-20T08:06:01.733Z,99841.75
2019-03-20T08:08:33.353Z,99852.87
2019-03-20T08:11:05.092Z,99849.55
2019-03-20T08:13:36.766Z,99848.55
2019-03-20T08:16:08.584Z,99842.71
2019-03-20T08:18:40.534Z,99836.50
2019-03-20T08:21:14.094Z,99840.55
2019-03-20T08:23:45.768Z,99842.23
2019-03-20T08:26:17.740Z,99842.56
2019-03-20T08:28:49.400Z,99841.22
2019-03-20T08:31:21.279Z,99842.85
2019-03-20T08:33:56.203Z,99838.16
2019-03-20T08:36:28.015Z,99844.84
2019-03-20T08:38:59.794Z,99845.16
2019-03-20T08:41:31.862Z,99843.13
2019-03-20T08:44:04.210Z,99842.63
2019-03-20T08:46:36.511Z,99844.28
2019-03-20T08:49:08.476Z,99846.78
2019-03-20T08:51:40.473Z,99849.74
2019-03-20T08:54:12.365Z,99850.19
2019-03-20T08:56:44.380Z,99842.92
2019-03-20T08:59:18.154Z,99852.92
2019-03-20T09:01:51.630Z,99852.48
2019-03-20T09:04:23.578Z,99855.81
2019-03-20T09:06:55.528Z,99868.47
2019-03-20T09:09:27.467Z,99859.61
2019-03-20T09:11:59.191Z,99865.17
2019-03-20T09:14:30.949Z,99860.88
2019-03-20T09:17:02.976Z,99856.31
2019-03-20T09:19:34.944Z,99868.37
2019-03-20T09:22:07.086Z,99863.36
2019-03-20T09:24:38.920Z,99861.88
2019-03-20T09:27:12.000Z,99861.15
2019-03-20T09:29:43.688Z,99857.53
2019-03-20T09:32:15.587Z,99858.31
2019-03-20T09:34:47.311Z,99853.84
2019-03-20T09:37:19.242Z,99858.58
2019-03-20T09:39:51.263Z,99868.23
2019-03-20T09:42:23.338Z,99863.05
2019-03-20T09:44:55.384Z,99861.88
2019-03-20T09:47:27.214Z,99870.58
2019-03-20T09:49:58.986Z,99865.58
2019-03-20T09:52:32.281Z,99865.50
2019-03-20T09:55:04.750Z,99865.89
2019-03-20T09:57:36.886Z,99860.78
2019-03-20T10:00:15.423Z,99862.49
2019-03-20T10:02:48.378Z,99864.95
2019-03-20T10:05:20.959Z,99874.66
2019-03-20T10:07:52.653Z,99864.34
2019-03-20T10:10:24.629Z,99876.32
2019-03-20T10:12:56.760Z,99877.30
2019-03-20T10:15:29.069Z,99868.19
2019-03-20T10:18:01.160Z,99873.02
2019-03-20T10:20:33.326Z,99860.56
2019-03-20T10:23:06.598Z,99873.39
2019-03-20T10:25:44.500Z,99880.78
2019-03-20T10:28:12.625Z,99867.91
2019-03-20T10:30:47.483Z,99864.36
2019-03-20T10:33:20.056Z,99872.58
2019-03-20T10:35:52.015Z,99878.48
2019-03-20T10:38:26.856Z,99876.67
2019-03-20T10:41:01.224Z,99874.75
2019-03-20T10:43:35.720Z,99873.91
2019-03-20T10:46:08.682Z,99866.63
2019-03-20T10:48:41.575Z,99868.79
2019-03-20T10:51:13.714Z,99874.66
2019-03-20T10:53:45.484Z,99874.66
2019-03-20T10:56:17.219Z,99871.09
2019-03-20T10:58:49.233Z,99874.02
2019-03-20T11:01:21.166Z,99867.83
2019-03-20T11:03:53.348Z,99881.00
2019-03-20T11:06:25.071Z,99883.57
2019-03-20T11:08:56.870Z,99893.55
2019-03-20T11:11:28.913Z,99881.14
2019-03-20T11:14:03.163Z,99874.13
2019-03-20T11:16:34.881Z,99881.61
2019-03-20T11:19:06.605Z,99879.77
2019-03-20T11:21:39.998Z,99878.91
2019-03-20T11:24:11.841Z,99874.86
2019-03-20T11:26:47.132Z,99868.17
2019-03-20T11:29:21.740Z,99866.77
2019-03-20T11:31:54.015Z,99873.30
2019-03-20T11:34:28.655Z,99869.48
2019-03-20T11:37:00.441Z,99878.34
2019-03-20T11:39:35.051Z,99871.25
2019-03-20T11:42:06.912Z,99872.59
2019-03-20T11:44:38.645Z,99864.37
2019-03-20T11:47:11.378Z,99870.44
2019-03-20T11:49:43.027Z,99866.47
2019-03-20T11:52:15.044Z,99872.81
2019-03-20T11:54:47.715Z,99874.70
2019-03-20T11:57:21.659Z,99871.88
2019-03-20T11:59:54.658Z,99870.87
2019-03-20T12:02:28.482Z,99872.97
2019-03-20T12:04:59.869Z,99864.51
2019-03-20T12:07:34.042Z,99866.89
2019-03-20T12:10:07.016Z,99863.67
2019-03-20T12:12:38.941Z,99870.94
2019-03-20T12:15:11.087Z,99862.63
2019-03-20T12:17:43.061Z,99872.44
2019-03-20T12:20:17.309Z,99868.46
2019-03-20T12:22:49.245Z,99867.17
2019-03-20T12:25:23.862Z,99864.72
2019-03-20T12:27:55.956Z,99858.77
2019-03-20T12:30:30.496Z,99851.16
2019-03-20T12:33:02.468Z,99851.16
2019-03-20T12:35:34.411Z,99851.23
2019-03-20T12:38:14.164Z,99846.44
2019-03-20T12:40:40.328Z,99849.00
2019-03-20T12:43:13.826Z,99842.55
2019-03-20T12:45:45.452Z,99841.09
2019-03-20T12:48:17.190Z,99846.05
2019-03-20T12:50:48.950Z,99851.60
2019-03-20T12:53:21.066Z,99839.67
2019-03-20T12:55:53.187Z,99837.18
2019-03-20T12:58:26.626Z,99831.05
2019-03-20T13:00:58.573Z,99839.88
2019-03-20T13:03:30.853Z,99845.48
2019-03-20T13:06:02.852Z,99833.08
2019-03-20T13:08:35.068Z,99835.48
2019-03-20T13:11:06.951Z,99837.02
2019-03-20T13:13:38.867Z,99835.11
2019-03-20T13:16:10.885Z,99836.84
2019-03-20T13:18:43.770Z,99835.99
2019-03-20T13:21:15.486Z,99836.79
2019-03-20T13:23:47.278Z,99831.33
2019-03-20T13:26:19.322Z,99831.66
2019-03-20T13:28:51.016Z,99828.00
2019-03-20T13:31:23.965Z,99819.94
2019-03-20T13:33:56.412Z,99829.97
2019-03-20T13:36:27.994Z,99816.78
2019-03-20T13:39:00.987Z,99815.10
2019-03-20T13:41:35.973Z,99811.70
2019-03-20T13:44:07.878Z,99827.93
2019-03-20T13:46:40.097Z,99806.22
2019-03-20T13:49:12.207Z,99811.58
2019-03-20T13:51:43.833Z,99802.67
2019-03-20T13:54:15.529Z,99803.86
2019-03-20T13:56:47.276Z,99803.62
2019-03-20T13:59:19.247Z,99801.19
2019-03-20T14:01:51.086Z,99805.16
2019-03-20T14:04:22.891Z,99807.59
2019-03-20T14:06:54.700Z,99809.55
2019-03-20T14:09:27.408Z,99807.94
2019-03-20T14:12:01.696Z,99810.19
2019-03-20T14:14:33.466Z,99817.20
2019-03-20T14:17:05.395Z,99808.06
2019-03-20T14:19:37.490Z,99815.97
2019-03-20T14:22:09.745Z,99809.64
2019-03-20T14:24:41.477Z,99804.02
2019-03-20T14:27:13.346Z,99804.23
2019-03-20T14:29:45.074Z,99809.56
2019-03-20T14:32:19.091Z,99812.20
2019-03-20T14:34:50.775Z,99812.85
2019-03-20T14:37:22.859Z,99810.03
2019-03-20T14:39:54.747Z,99804.63
2019-03-20T14:42:26.404Z,99813.86
2019-03-20T14:44:58.721Z,99811.64
2019-03-20T14:47:31.078Z,99813.52
2019-03-20T14:50:03.410Z,99812.66
2019-03-20T14:52:35.241Z,99808.94
2019-03-20T14:55:08.118Z,99810.20
2019-03-20T14:57:39.985Z,99809.77
2019-03-20T15:00:15.204Z,99807.09
2019-03-20T15:02:47.930Z,99809.38
2019-03-20T15:05:19.557Z,99806.67
2019-03-20T15:07:51.263Z,99803.30
2019-03-20T15:10:24.541Z,99800.52
2019-03-20T15:12:56.331Z,99810.63
2019-03-20T15:15:43.325Z,99802.95
2019-03-20T15:18:15.304Z,99800.25
2019-03-20T15:20:47.245Z,99795.30
2019-03-20T15:23:19.036Z,99801.98
2019-03-20T15:25:50.896Z,99802.45
2019-03-20T15:28:22.765Z,99803.28
2019-03-20T15:30:55.097Z,99798.25
2019-03-20T15:33:27.360Z,99806.98
2019-03-20T15:36:00.283Z,99807.84
2019-03-20T15:38:33.927Z,99808.62
2019-03-20T15:41:05.982Z,99802.77
2019-03-20T15:43:37.567Z,99801.46
2019-03-20T15:46:10.158Z,99798.13
2019-03-20T15:48:43.060Z,99801.99
2019-03-20T15:51:14.898Z,99800.59
2019-03-20T15:53:47.026Z,99797.08
2019-03-20T15:56:20.479Z,99805.89
2019-03-20T15:58:53.542Z,99813.14
2019-03-20T16:01:25.578Z,99808.44
2019-03-20T16:03:57.182Z,99813.62
2019-03-20T16:06:30.008Z,99813.59
2019-03-20T16:09:02.155Z,99805.24
2019-03-20T16:11:35.205Z,99811.92
2019-03-20T16:14:07.129Z,99816.27
2019-03-20T16:16:39.777Z,99819.91
2019-03-20T16:19:11.644Z,99821.78
2019-03-20T16:21:43.402Z,99822.38
2019-03-20T16:24:16.818Z,99821.47
2019-03-20T16:26:48.446Z,99821.41
2019-03-20T16:29:20.023Z,99823.14
2019-03-20T16:31:51.914Z,99828.73
2019-03-20T16:34:23.659Z,99832.85
2019-03-20T16:36:55.476Z,99841.97
2019-03-20T16:39:27.463Z,99836.73
2019-03-20T16:42:01.150Z,99845.67
2019-03-20T16:44:33.507Z,99846.52
2019-03-20T16:47:05.492Z,99840.06
2019-03-20T16:49:37.326Z,99841.91
2019-03-20T16:52:09.426Z,99852.73
2019-03-20T16:54:41.270Z,99853.45
2019-03-20T16:57:13.038Z,99849.23
2019-03-20T16:59:44.883Z,99848.63
2019-03-20T17:02:17.788Z,99856.76
2019-03-20T17:04:49.407Z,99858.22
2019-03-20T17:07:21.564Z,99857.61
2019-03-20T17:09:53.186Z,99861.39
2019-03-20T17:12:26.362Z,99871.80
2019-03-20T17:14:58.157Z,99867.41
2019-03-20T17:17:31.163Z,99877.95
2019-03-20T17:20:04.003Z,99880.09
2019-03-20T17:22:41.940Z,99883.16
2019-03-20T17:25:10.195Z,99875.46
2019-03-20T17:27:43.256Z,99878.72
2019-03-20T17:30:26.403Z,99891.86
2019-03-20T17:32:58.165Z,99884.50
2019-03-20T17:35:30.018Z,99878.16
2019-03-20T17:38:02.087Z,99892.78
2019-03-20T17:40:34.579Z,99883.69
2019-03-20T17:43:07.346Z,99888.62
2019-03-20T17:45:40.473Z,99891.81
2019-03-20T17:48:12.371Z,99894.15
2019-03-20T17:50:44.127Z,99897.73
2019-03-20T17:53:16.059Z,99892.34
2019-03-20T17:55:48.946Z,99895.91
2019-03-20T17:58:20.924Z,99899.66
2019-03-20T18:00:53.774Z,99912.31
2019-03-20T18:03:25.646Z,99906.80
2019-03-20T18:05:57.301Z,99910.27
2019-03-20T18:08:28.946Z,99901.09
2019-03-20T18:11:00.584Z,99896.91
2019-03-20T18:13:32.291Z,99895.56
2019-03-20T18:16:04.185Z,99912.23
2019-03-20T18:18:35.835Z,99921.71
2019-03-20T18:21:07.653Z,99916.51
2019-03-20T18:23:39.627Z,99917.05
2019-03-20T18:26:11.454Z,99919.45
2019-03-20T18:28:43.072Z,99931.59
2019-03-20T18:31:14.969Z,99927.91
2019-03-20T18:33:47.063Z,99924.57
2019-03-20T18:36:19.975Z,99935.36
2019-03-20T18:38:51.793Z,99929.02
2019-03-20T18:41:23.626Z,99941.97
2019-03-20T18:43:56.728Z,99933.86
2019-03-20T18:46:28.481Z,99934.36
2019-03-20T18:49:00.148Z,99928.17
2019-03-20T18:51:31.858Z,99934.92
2019-03-20T18:54:03.968Z,99925.86
2019-03-20T18:56:36.262Z,99924.17
2019-03-20T18:59:07.937Z,99926.33
2019-03-20T19:01:39.922Z,99925.70
2019-03-20T19:04:11.845Z,99928.73
2019-03-20T19:06:43.966Z,99923.86
2019-03-20T19:09:15.822Z,99933.42
2019-03-20T19:11:47.574Z,99935.45
2019-03-20T19:14:20.529Z,99930.44
2019-03-20T19:16:52.367Z,99934.16
2019-03-20T19:19:24.084Z,99931.30
2019-03-20T19:21:55.726Z,99924.08
2019-03-20T19:24:27.666Z,99927.45
2019-03-20T19:26:59.328Z,99938.03
2019-03-20T19:29:30.975Z,99945.09
2019-03-20T19:32:03.902Z,99941.39
2019-03-20T19:34:35.845Z,99946.08
2019-03-20T19:37:07.632Z,99943.23
2019-03-20T19:39:39.354Z,99948.77
2019-03-20T19:42:19.651Z,99947.27
2019-03-20T19:44:45.515Z,99947.28
2019-03-20T19:47:17.418Z,99951.80
2019-03-20T19:49:49.072Z,99952.47
2019-03-20T19:52:21.815Z,99964.74
2019-03-20T19:54:53.398Z,99968.41
2019-03-20T19:57:25.129Z,99953.66
2019-03-20T19:59:57.123Z,99956.17
2019-03-20T20:02:28.722Z,99960.16
2019-03-20T20:05:00.471Z,99970.23
2019-03-20T20:07:32.056Z,99971.25
2019-03-20T20:10:03.919Z,99976.96
2019-03-20T20:12:35.582Z,99978.78
2019-03-20T20:15:10.368Z,99982.61
2019-03-20T20:17:42.285Z,99973.38
2019-03-20T20:20:16.908Z,99966.67
2019-03-20T20:22:48.627Z,99965.83
2019-03-20T20:25:21.207Z,99971.33
2019-03-20T20:27:52.910Z,99976.03
2019-03-20T20:30:24.828Z,99964.97
2019-03-20T20:32:56.490Z,99961.10
2019-03-20T20:35:28.300Z,99958.25
2019-03-20T20:38:00.310Z,99948.86
2019-03-20T20:40:32.184Z,99952.02
2019-03-20T20:43:03.796Z,99954.20
2019-03-20T20:45:35.832Z,99954.52
2019-03-20T20:48:07.645Z,99946.16
2019-03-20T20:50:39.475Z,99942.80
2019-03-20T20:53:11.284Z,99947.51
2019-03-20T20:55:42.914Z,99943.66
2019-03-20T20:58:15.041Z,99956.91
2019-03-20T21:00:46.738Z,99965.25
2019-03-20T21:03:18.911Z,99952.95
2019-03-20T21:05:50.505Z,99958.49
2019-03-20T21:08:22.281Z,99965.06
2019-03-20T21:10:54.052Z,99957.45
2019-03-20T21:13:25.641Z,99958.47
2019-03-20T21:16:00.601Z,99958.97
2019-03-20T21:19:16.053Z,99953.42
2019-03-20T21:22:28.715Z,99956.14
2019-03-20T21:25:00.965Z,99960.31
2019-03-20T21:28:13.290Z,99976.54
2019-03-20T21:31:02.141Z,99965.64
2019-03-20T21:34:29.610Z,99956.58
2019-03-20T21:37:30.849Z,99952.70
2019-03-20T21:40:03.025Z,99961.76
2019-03-20T21:43:10.989Z,99963.91
2019-03-20T21:46:00.817Z,99947.83
2019-03-20T21:48:33.121Z,99954.04
2019-03-20T21:51:16.980Z,99961.41
2019-03-20T21:54:42.870Z,99955.52
2019-03-20T21:57:52.565Z,99955.84
2019-03-20T22:01:00.711Z,99953.66
2019-03-20T22:03:33.506Z,99962.89
2019-03-20T22:06:51.623Z,99964.38
2019-03-20T22:10:15.972Z,99958.13
2019-03-20T22:13:00.487Z,99948.57
2019-03-20T22:16:19.332Z,99958.13
2019-03-20T22:19:49.831Z,99963.31
2019-03-20T22:23:05.956Z,99978.50
2019-03-20T22:26:24.850Z,99980.91
2019-03-20T22:29:22.040Z,99988.14
2019-03-20T22:32:31.398Z,99981.55
2019-03-20T22:35:30.903Z,99974.88
2019-03-20T22:38:05.135Z,99980.12
2019-03-20T22:41:21.665Z,99989.47
2019-03-20T22:43:58.196Z,99982.67
2019-03-20T22:47:19.724Z,99989.37
2019-03-20T22:50:34.589Z,99997.63
2019-03-20T22:53:59.577Z,99972.80
2019-03-20T22:57:14.655Z,99971.52
2019-03-20T22:59:46.965Z,99984.85
2019-03-20T23:02:27.208Z,99978.47
2019-03-20T23:05:00.601Z,99970.73
2019-03-20T23:07:33.021Z,99974.94
2019-03-20T23:10:07.760Z,99966.25
2019-03-20T23:12:40.480Z,99965.51
2019-03-20T23:15:15.853Z,99958.98
2019-03-20T23:17:48.183Z,99965.91
2019-03-20T23:20:22.845Z,99977.23
2019-03-20T23:22:55.189Z,99970.18
2019-03-20T23:25:28.056Z,99977.28
2019-03-20T23:28:00.421Z,99972.91
2019-03-20T23:30:32.970Z,99973.77
2019-03-20T23:33:05.351Z,99980.85
2019-03-20T23:35:37.872Z,99972.65
2019-03-20T23:38:10.312Z,99986.21
2019-03-20T23:40:42.795Z,99999.73
2019-03-20T23:43:15.248Z,100009.61
2019-03-20T23:45:47.531Z,100013.08
2019-03-20T23:48:30.774Z,100025.30
2019-03-20T23:51:06.521Z,100020.64
2019-03-20T23:53:43.115Z,100010.36
2019-03-20T23:56:15.471Z,100001.98
2019-03-20T23:58:48.047Z,100009.61
